Time;durP1;ratioP1;P1;durP2;ratioP2;P2;SDS_P1;SDS_P2;PMS_P1;PMS_P2;Temp;Humidity;BMP_temperature;BMP_pressure;BME280_temperature;BME280_humidity;BME280_pressure;Samples;Min_cycle;Max_cycle;Signal;HPM_P1;HPM_P2
2022/07/03 00:01:58;;;;;;;;;0.00;0.00;;;;;19.23;100.00;101411.97;5036531;28;45715;-79
2022/07/03 00:04:48;;;;;;;;;2.00;1.00;;;;;19.31;100.00;101426.56;5025627;28;45327;-81
2022/07/03 00:07:17;;;;;;;;;1.00;1.00;;;;;19.16;100.00;101402.97;5031035;28;45732;-81
2022/07/03 00:09:48;;;;;;;;;2.33;0.00;;;;;19.28;100.00;101424.28;5017913;28;45953;-81
2022/07/03 00:12:17;;;;;;;;;2.00;2.00;;;;;19.07;100.00;101386.94;5034174;28;45552;-81
2022/07/03 00:14:57;;;;;;;;;1.00;1.00;;;;;19.23;100.00;101420.31;5036578;28;45835;-78
2022/07/03 00:17:34;;;;;;;;;3.33;3.33;;;;;19.18;100.00;101419.41;5038484;28;45391;-81
2022/07/03 00:20:02;;;;;;;;;1.33;1.33;;;;;19.12;100.00;101410.13;5036889;28;46522;-81
2022/07/03 00:22:36;;;;;;;;;1.00;1.00;;;;;19.13;100.00;101414.59;5027664;28;45452;-81
2022/07/03 00:25:15;;;;;;;;;1.00;1.00;;;;;19.07;100.00;101414.75;5035143;28;45643;-79
2022/07/03 00:28:15;;;;;;;;;;;;;;;;;;;;;
2022/07/03 00:31:44;;;;;;;;;;;;;;;;;;;;;
2022/07/03 00:38:44;;;;;;;;;;;;;;;;;;;;;
2022/07/03 01:03:14;;;;;;;;;1.00;1.00;;;;;18.81;100.00;101426.19;4814364;29;45384;-80
2022/07/03 01:09:58;;;;;;;;;;;;;;;;;;;;;
2022/07/03 01:13:18;;;;;;;;;;;;;;;;;;;;;
2022/07/03 01:26:40;;;;;;;;;1.33;0.00;;;;;18.42;100.00;101414.81;4864432;29;45506;-83
2022/07/03 01:37:06;;;;;;;;;;;;;;;;;;;;;
2022/07/03 01:40:24;;;;;;;;;;;;;;;;;;;;;
2022/07/03 01:47:13;;;;;;;;;1.33;1.00;;;;;18.41;100.00;101432.56;4825066;29;45817;-81
2022/07/03 01:54:50;;;;;;;;;0.00;0.00;;;;;18.31;100.00;101433.19;4795670;29;45725;-81
2022/07/03 02:01:37;;;;;;;;;2.00;2.00;;;;;18.14;100.00;101419.22;4862685;28;45108;-80
2022/07/03 02:04:21;;;;;;;;;1.00;1.00;;;;;18.23;100.00;101435.50;4934540;28;45670;-80
2022/07/03 02:07:08;;;;;;;;;1.00;1.00;;;;;18.18;100.00;101437.06;5016889;28;44864;-80
2022/07/03 02:45:22;;;;;;;;;1.00;1.00;;;;;17.74;100.00;101453.22;4911008;28;45795;-79
2022/07/03 02:48:11;;;;;;;;;1.00;1.00;;;;;17.71;100.00;101453.69;4958243;28;45604;-80
2022/07/03 02:50:49;;;;;;;;;1.33;1.33;;;;;17.56;100.00;101434.75;5025270;28;45441;-81
2022/07/03 02:53:53;;;;;;;;;4.33;3.00;;;;;17.63;100.00;101459.59;5029258;28;46249;-78
2022/07/03 02:56:49;;;;;;;;;6.00;3.00;;;;;17.61;100.00;101453.44;5022517;28;45725;-81
2022/07/03 02:59:58;;;;;;;;;;;;;;;;;;;;;
2022/07/03 03:03:42;;;;;;;;;2.67;1.33;;;;;17.53;100.00;101456.56;5033611;28;74771;-80
2022/07/03 03:06:38;;;;;;;;;;;;;;;;;;;;;
2022/07/03 03:09:25;;;;;;;;;2.00;2.00;;;;;17.29;100.00;101439.88;4966958;28;73036;-81
2022/07/03 03:12:18;;;;;;;;;2.00;2.00;;;;;17.36;100.00;101465.56;5034357;28;45462;-82
2022/07/03 03:16:15;;;;;;;;;;;;;;;;;;;;;
2022/07/03 03:19:25;;;;;;;;;2.00;2.00;;;;;17.10;100.00;101420.53;4993607;28;45577;-81
2022/07/03 03:22:34;;;;;;;;;2.67;2.00;;;;;17.33;100.00;101460.47;4964059;28;45985;-80
2022/07/03 03:25:29;;;;;;;;;1.00;1.00;;;;;17.30;100.00;101463.72;4937388;28;45649;-80
2022/07/03 03:28:27;;;;;;;;;2.00;1.00;;;;;16.72;100.00;101363.50;4907976;28;45829;-80
2022/07/03 03:34:41;;;;;;;;;5.33;2.00;;;;;17.23;100.00;101460.22;4935519;28;45981;-79
2022/07/03 03:37:57;;;;;;;;;2.67;2.00;;;;;16.93;100.00;101413.94;4929109;28;45538;-80
2022/07/03 03:40:31;;;;;;;;;2.00;2.00;;;;;16.81;100.00;101393.63;4933284;28;45826;-78
2022/07/03 03:43:43;;;;;;;;;;;;;;;;;;;;;
2022/07/03 03:46:43;;;;;;;;;0.67;0.67;;;;;16.86;100.00;101411.25;5029599;28;72138;-79
2022/07/03 03:53:38;;;;;;;;;;;;;;;;;;;;;
2022/07/03 03:59:33;;;;;;;;;2.00;1.67;;;;;17.14;100.00;101479.13;5033155;28;45965;-81
2022/07/03 04:02:12;;;;;;;;;1.00;0.00;;;;;17.00;100.00;101431.31;4995779;28;45884;-81
2022/07/03 04:05:39;;;;;;;;;4.67;1.00;;;;;17.01;100.00;101421.09;4979972;28;45523;-81
2022/07/03 04:09:02;;;;;;;;;;;;;;;;;;;;;
2022/07/03 04:11:50;;;;;;;;;2.33;0.00;;;;;17.92;100.00;101468.09;4956250;28;73139;-80
2022/07/03 04:21:18;;;;;;;;;;;;;;;;;;;;;
2022/07/03 04:48:53;;;;;;;;;;;;;;;;;;;;;
2022/07/03 04:52:18;;;;;;;;;;;;;;;;;;;;;
2022/07/03 04:54:58;;;;;;;;;0.00;0.00;;;;;26.76;90.95;101469.06;4895762;28;68242;-82
2022/07/03 04:57:37;;;;;;;;;1.00;1.00;;;;;27.44;86.82;101481.09;4977141;28;45531;-81
2022/07/03 05:00:51;;;;;;;;;1.67;1.67;;;;;27.75;82.91;101410.97;4975066;28;45774;-80
2022/07/03 05:03:08;;;;;;;;;2.00;1.00;;;;;28.72;75.87;101440.47;4968911;28;45810;-83
2022/07/03 05:20:40;;;;;;;;;0.00;0.00;;;;;32.69;49.63;101484.38;4844155;29;45530;-85
2022/07/03 05:33:43;;;;;;;;;1.00;1.00;;;;;35.27;37.14;101442.78;4796292;29;45767;-77
2022/07/03 05:36:09;;;;;;;;;3.00;1.00;;;;;35.73;36.18;101454.75;4811028;28;45866;-81
2022/07/03 05:41:19;;;;;;;;;0.00;0.00;;;;;36.51;34.81;101477.25;5026909;28;45695;-79
2022/07/03 05:43:44;;;;;;;;;0.50;0.50;;;;;36.80;33.47;101472.25;5032435;28;45488;-79
2022/07/03 05:46:10;;;;;;;;;1.00;0.00;;;;;37.19;32.64;101475.19;5017064;28;45810;-81
2022/07/03 05:48:36;;;;;;;;;0.00;0.00;;;;;37.52;31.24;101474.72;5033378;28;45647;-82
2022/07/03 05:51:02;;;;;;;;;3.00;0.00;;;;;37.48;31.01;101481.56;5033736;28;45505;-82
2022/07/03 05:53:28;;;;;;;;;2.00;0.00;;;;;37.77;30.44;101480.13;5015301;28;45658;-81
2022/07/03 05:55:56;;;;;;;;;0.00;0.00;;;;;38.13;29.91;101480.81;5032193;28;45605;-81
2022/07/03 05:58:22;;;;;;;;;0.00;0.00;;;;;38.38;29.78;101481.28;5016275;28;47754;-81
2022/07/03 06:00:47;;;;;;;;;0.00;0.00;;;;;38.79;28.71;101477.88;5027670;28;46036;-80
2022/07/03 06:03:13;;;;;;;;;0.00;0.00;;;;;39.09;28.10;101466.44;5023627;28;45899;-82
2022/07/03 06:05:38;;;;;;;;;0.75;0.75;;;;;39.36;28.27;101475.84;5021506;28;45856;-83
2022/07/03 06:08:05;;;;;;;;;0.00;0.00;;;;;39.70;27.71;101481.63;5034417;28;45976;-83
2022/07/03 06:10:31;;;;;;;;;0.00;0.00;;;;;40.13;27.41;101484.13;5020302;28;45599;-82
2022/07/03 06:12:57;;;;;;;;;0.00;0.00;;;;;40.42;26.40;101473.75;5036996;28;45886;-83
2022/07/03 06:15:23;;;;;;;;;1.00;0.00;;;;;40.72;25.75;101483.41;5032767;28;45889;-83
2022/07/03 06:17:49;;;;;;;;;0.00;0.00;;;;;40.89;25.70;101465.50;5040017;28;45484;-82
2022/07/03 06:20:15;;;;;;;;;0.00;0.00;;;;;41.36;25.51;101487.97;5025819;28;45607;-85
2022/07/03 06:22:41;;;;;;;;;0.00;0.00;;;;;41.53;25.64;101475.69;5043874;28;45546;-81
2022/07/03 06:25:07;;;;;;;;;0.50;0.50;;;;;41.96;25.15;101481.56;5033649;28;46575;-82
2022/07/03 06:27:33;;;;;;;;;0.00;0.00;;;;;42.18;24.21;101480.84;5044030;28;45896;-81
2022/07/03 06:29:59;;;;;;;;;1.00;0.00;;;;;42.58;24.46;101482.50;5038450;28;45304;-82
2022/07/03 06:32:24;;;;;;;;;1.00;1.00;;;;;43.06;23.76;101486.97;5020195;28;45519;-83
2022/07/03 06:34:50;;;;;;;;;0.00;0.00;;;;;43.18;23.09;101474.16;5029835;28;45767;-81
2022/07/03 06:37:16;;;;;;;;;0.00;0.00;;;;;43.56;23.15;101483.88;5038978;28;45714;-84
2022/07/03 06:39:41;;;;;;;;;1.00;1.00;;;;;43.93;21.88;101477.91;5020580;28;45795;-82
2022/07/03 06:42:07;;;;;;;;;0.25;0.25;;;;;44.17;22.23;101481.91;5037868;28;45354;-85
2022/07/03 06:44:32;;;;;;;;;1.00;1.00;;;;;44.44;21.57;101473.41;5039909;28;45712;-82
2022/07/03 06:46:58;;;;;;;;;1.00;1.00;;;;;44.64;21.72;101455.50;5048715;28;46079;-82
2022/07/03 06:49:24;;;;;;;;;0.00;0.00;;;;;45.23;21.30;101487.09;5037152;28;45323;-83
2022/07/03 06:51:50;;;;;;;;;0.00;0.00;;;;;45.35;20.45;101473.28;5026569;28;45511;-82
2022/07/03 06:54:15;;;;;;;;;0.50;0.50;;;;;45.60;20.40;101479.56;5021417;28;46415;-83
2022/07/03 06:56:42;;;;;;;;;1.00;1.00;;;;;45.98;20.26;101484.47;5016837;28;45917;-79
2022/07/03 06:59:08;;;;;;;;;1.00;1.00;;;;;46.27;19.80;101490.63;5030842;28;45799;-83
2022/07/03 07:01:34;;;;;;;;;0.00;0.00;;;;;46.42;19.93;101493.28;5033886;28;46019;-84
2022/07/03 07:03:59;;;;;;;;;2.00;0.00;;;;;46.89;19.08;101498.25;5019758;28;45386;-84
2022/07/03 07:06:25;;;;;;;;;1.00;1.00;;;;;47.28;18.76;101506.22;5020971;28;45431;-83
2022/07/03 07:08:51;;;;;;;;;1.00;1.00;;;;;47.61;18.45;101494.72;5018748;28;45799;-81
2022/07/03 07:11:17;;;;;;;;;1.00;1.00;;;;;47.55;18.25;101482.81;5012076;28;45436;-83
2022/07/03 07:13:42;;;;;;;;;1.00;1.00;;;;;47.63;17.94;101498.00;5038738;28;45766;-82
2022/07/03 07:16:08;;;;;;;;;1.00;1.00;;;;;47.91;18.04;101493.63;5023289;28;47397;-79
2022/07/03 07:18:34;;;;;;;;;2.00;0.33;;;;;48.13;17.63;101493.09;5040555;28;45487;-82
2022/07/03 07:21:00;;;;;;;;;1.00;1.00;;;;;48.22;17.50;101498.28;5030188;28;45440;-81
2022/07/03 07:23:25;;;;;;;;;0.00;0.00;;;;;48.50;17.27;101499.66;5034902;28;46187;-80
2022/07/03 07:25:52;;;;;;;;;1.00;1.00;;;;;48.71;17.42;101498.28;5037714;28;46781;-82
2022/07/03 07:28:17;;;;;;;;;2.00;1.00;;;;;49.07;16.92;101508.13;5036795;28;45537;-83
2022/07/03 07:30:43;;;;;;;;;1.00;1.00;;;;;49.33;16.69;101503.19;5037818;28;45426;-81
2022/07/03 07:33:09;;;;;;;;;1.00;1.00;;;;;49.45;16.36;101482.03;5035790;28;45837;-83
2022/07/03 07:35:35;;;;;;;;;0.00;0.00;;;;;49.89;16.36;101501.09;5043839;28;45362;-85
2022/07/03 07:38:01;;;;;;;;;2.00;1.67;;;;;50.30;15.46;101502.28;5044762;28;45800;-82
2022/07/03 07:40:27;;;;;;;;;1.00;1.00;;;;;50.29;15.58;101492.72;5042930;28;45771;-84
2022/07/03 07:42:53;;;;;;;;;2.00;1.00;;;;;50.54;15.08;101496.81;5039468;28;45677;-83
2022/07/03 07:45:19;;;;;;;;;1.00;1.00;;;;;50.61;15.17;101508.28;5033876;28;47340;-84
2022/07/03 07:47:44;;;;;;;;;2.00;0.67;;;;;50.61;15.40;101510.41;5025476;28;45993;-83
2022/07/03 07:50:11;;;;;;;;;1.67;1.67;;;;;50.73;15.44;101497.06;5044456;28;45378;-85
2022/07/03 07:52:37;;;;;;;;;0.33;0.33;;;;;50.95;15.08;101506.69;5049412;28;45516;-84
2022/07/03 07:55:05;;;;;;;;;0.00;0.00;;;;;51.18;15.11;101496.59;5049403;28;45473;-85
2022/07/03 07:57:38;;;;;;;;;1.33;0.33;;;;;51.54;14.71;101492.28;5041792;28;45710;-82
2022/07/03 08:00:09;;;;;;;;;0.67;0.67;;;;;51.77;14.36;101509.81;5027440;28;45404;-82
2022/07/03 08:05:37;;;;;;;;;1.00;1.00;;;;;52.19;14.09;101500.56;5047091;28;45434;-85
2022/07/03 08:08:15;;;;;;;;;0.00;0.00;;;;;52.22;14.04;101512.13;5043530;28;45417;-80
2022/07/03 08:10:48;;;;;;;;;0.00;0.00;;;;;52.22;14.14;101500.41;5045982;28;45382;-82
2022/07/03 08:13:18;;;;;;;;;1.33;1.33;;;;;52.39;13.95;101498.03;5022873;28;45930;-83
2022/07/03 08:15:47;;;;;;;;;1.67;1.67;;;;;52.58;13.74;101503.91;5041102;28;45556;-82
2022/07/03 08:18:12;;;;;;;;;1.00;1.00;;;;;52.72;13.27;101490.78;5043447;28;45703;-78
2022/07/03 08:20:38;;;;;;;;;2.00;2.00;;;;;53.11;12.60;101491.09;5047083;28;45382;-82
2022/07/03 08:23:04;;;;;;;;;4.33;2.33;;;;;53.59;13.11;101500.09;5049246;28;45253;-81
2022/07/03 08:25:30;;;;;;;;;1.00;1.00;;;;;53.67;13.04;101477.09;5040423;28;45157;-83
2022/07/03 08:27:59;;;;;;;;;3.67;2.00;;;;;53.88;13.21;101468.53;5042093;28;45484;-84
2022/07/03 08:30:26;;;;;;;;;1.00;1.00;;;;;53.85;12.98;101463.66;5045053;28;45368;-79
2022/07/03 08:32:54;;;;;;;;;0.67;0.33;;;;;54.48;12.62;101507.84;5036503;28;46487;-77
2022/07/03 08:35:19;;;;;;;;;1.00;1.00;;;;;54.64;12.67;101503.63;5032130;28;46303;-79
2022/07/03 08:37:47;;;;;;;;;1.00;1.00;;;;;54.81;12.88;101493.03;5036633;28;45790;-79
2022/07/03 08:40:14;;;;;;;;;3.33;2.00;;;;;55.03;12.45;101500.72;5036083;28;45538;-78
2022/07/03 08:42:50;;;;;;;;;3.00;3.00;;;;;55.17;11.89;101496.16;5034242;28;45508;-79
2022/07/03 08:45:18;;;;;;;;;3.00;1.33;;;;;54.83;11.38;101469.84;5035464;28;45492;-80
2022/07/03 08:47:45;;;;;;;;;3.00;2.00;;;;;54.90;12.21;101486.28;5037679;28;45794;-78
2022/07/03 08:50:16;;;;;;;;;2.00;2.00;;;;;54.90;12.30;101491.34;5033172;28;45231;-82
2022/07/03 08:52:42;;;;;;;;;1.67;0.33;;;;;55.16;12.19;101491.59;5015526;28;46430;-82
2022/07/03 08:58:31;;;;;;;;;1.00;1.00;;;;;55.16;12.02;101501.22;5059162;22;45606;-78
2022/07/03 09:00:57;;;;;;;;;1.00;1.00;;;;;55.04;11.58;101478.84;5030371;28;45365;-80
2022/07/03 09:03:24;;;;;;;;;1.00;1.00;;;;;55.38;11.83;101505.91;5031836;28;45795;-80
2022/07/03 09:05:51;;;;;;;;;0.33;0.33;;;;;54.92;12.09;101488.69;5025875;28;47300;-76
2022/07/03 09:08:18;;;;;;;;;1.67;1.67;;;;;54.82;11.85;101482.91;5034059;28;45568;-76
2022/07/03 09:10:46;;;;;;;;;3.00;1.00;;;;;53.96;12.03;101491.16;5015017;28;45871;-77
2022/07/03 09:13:12;;;;;;;;;2.00;2.00;;;;;53.71;12.87;101488.69;5026822;28;45494;-76
2022/07/03 09:15:38;;;;;;;;;2.33;2.33;;;;;53.17;12.97;101500.84;5032297;28;45529;-80
2022/07/03 09:18:06;;;;;;;;;1.00;1.00;;;;;52.43;13.26;101486.97;5032452;28;45923;-76
2022/07/03 09:20:33;;;;;;;;;1.00;1.00;;;;;52.39;13.57;101491.38;5031513;28;45695;-76
2022/07/03 09:23:17;;;;;;;;;2.67;2.67;;;;;52.75;13.57;101487.66;5032052;28;45652;-75
2022/07/03 09:26:03;;;;;;;;;2.00;2.00;;;;;52.99;13.59;101486.16;5044819;28;45522;-75
2022/07/03 09:28:42;;;;;;;;;2.00;2.00;;;;;53.10;12.87;101486.53;5021748;28;45696;-77
2022/07/03 09:31:09;;;;;;;;;2.00;2.00;;;;;53.38;13.16;101486.50;5032824;28;45434;-79
2022/07/03 09:33:35;;;;;;;;;2.67;2.00;;;;;53.71;12.46;101483.63;5032020;28;45981;-79
2022/07/03 09:36:00;;;;;;;;;1.33;1.33;;;;;53.60;12.59;101483.28;5026124;28;47518;-77
2022/07/03 09:38:26;;;;;;;;;3.00;3.00;;;;;54.08;12.55;101483.47;5032553;28;45775;-79
2022/07/03 09:40:57;;;;;;;;;2.00;2.00;;;;;53.99;12.42;101475.50;5029543;28;45533;-78
2022/07/03 09:43:29;;;;;;;;;3.00;3.00;;;;;53.03;12.33;101492.72;5026425;28;45659;-76
2022/07/03 09:45:59;;;;;;;;;5.67;4.00;;;;;51.50;13.65;101490.81;5028572;28;45542;-77
2022/07/03 09:48:38;;;;;;;;;5.00;5.00;;;;;50.03;14.44;101486.06;5029084;28;45851;-76
2022/07/03 09:51:25;;;;;;;;;5.33;4.00;;;;;48.51;15.05;101480.94;5028425;28;45573;-75
2022/07/03 09:54:04;;;;;;;;;5.00;4.00;;;;;48.69;15.24;101474.63;5030341;28;45763;-78
2022/07/03 09:56:37;;;;;;;;;3.33;3.33;;;;;49.19;15.29;101480.34;5026352;28;47397;-76
2022/07/03 09:59:11;;;;;;;;;5.33;4.00;;;;;49.71;15.13;101487.06;5030714;28;45421;-79
2022/07/03 10:01:39;;;;;;;;;3.67;3.67;;;;;50.32;14.34;101485.94;5030752;28;45438;-77
2022/07/03 10:04:09;;;;;;;;;4.33;4.00;;;;;51.02;13.81;101485.13;5030017;28;45960;-77
2022/07/03 10:06:54;;;;;;;;;3.00;3.00;;;;;51.83;13.96;101487.41;5030077;28;46311;-79
2022/07/03 10:09:28;;;;;;;;;4.00;3.00;;;;;52.52;13.04;101488.28;5005004;28;45675;-81
2022/07/03 10:11:56;;;;;;;;;2.00;2.00;;;;;51.67;13.53;101480.53;5029786;28;45676;-77
2022/07/03 10:14:24;;;;;;;;;5.00;2.33;;;;;50.90;14.21;101483.88;5030346;28;45404;-80
2022/07/03 10:16:50;;;;;;;;;1.67;1.67;;;;;50.45;14.23;101493.81;5030578;28;46208;-82
2022/07/03 10:19:30;;;;;;;;;4.67;4.00;;;;;50.94;13.30;101481.63;5031396;28;45449;-77
2022/07/03 10:22:00;;;;;;;;;5.67;5.67;;;;;51.73;13.97;101480.72;5027468;28;46713;-80
2022/07/03 10:24:27;;;;;;;;;3.33;3.33;;;;;52.54;13.02;101482.78;5025246;28;45768;-81
2022/07/03 10:26:55;;;;;;;;;7.00;6.33;;;;;53.39;13.00;101488.09;5008951;28;48194;-79
2022/07/03 10:29:22;;;;;;;;;6.00;5.00;;;;;53.98;12.41;101484.78;5028364;28;45472;-78
2022/07/03 10:31:48;;;;;;;;;4.67;4.67;;;;;54.35;11.76;101487.56;5032172;28;45658;-78
2022/07/03 10:34:21;;;;;;;;;2.00;2.00;;;;;55.05;12.41;101489.25;5029421;28;45959;-77
2022/07/03 10:36:52;;;;;;;;;7.67;7.00;;;;;55.73;11.39;101484.59;5027970;28;46355;-75
2022/07/03 10:39:34;;;;;;;;;6.67;6.67;;;;;56.39;11.04;101488.25;5029467;28;45820;-76
2022/07/03 10:44:52;;;;;;;;;5.67;5.67;;;;;56.82;11.02;101485.59;5017760;28;45829;-77
2022/07/03 10:47:51;;;;;;;;;1.67;1.67;;;;;56.61;10.60;101472.19;5030296;28;45924;-79
2022/07/03 10:50:21;;;;;;;;;2.00;2.00;;;;;56.60;10.45;101468.47;5001176;28;45678;-77
2022/07/03 10:52:47;;;;;;;;;1.00;1.00;;;;;56.20;10.26;101482.63;5033211;28;45772;-79
2022/07/03 10:55:14;;;;;;;;;1.33;1.33;;;;;54.62;10.89;101479.81;5014491;28;46977;-77
2022/07/03 10:57:41;;;;;;;;;2.00;2.00;;;;;54.19;11.08;101482.88;5015655;28;46843;-78
2022/07/03 11:00:14;;;;;;;;;1.00;1.00;;;;;52.58;11.98;101477.53;5032070;28;45785;-78
2022/07/03 11:02:45;;;;;;;;;1.33;1.33;;;;;51.85;12.26;101485.66;5032405;28;45398;-76
2022/07/03 11:05:19;;;;;;;;;1.67;1.67;;;;;51.42;12.74;101486.56;5030013;28;45521;-77
2022/07/03 11:07:48;;;;;;;;;0.67;0.67;;;;;50.91;13.31;101487.63;5032587;28;45703;-75
2022/07/03 11:10:19;;;;;;;;;1.00;1.00;;;;;50.67;13.46;101491.78;5032082;28;45633;-75
2022/07/03 11:13:03;;;;;;;;;1.67;1.67;;;;;50.67;13.25;101477.19;5032370;28;45434;-76
2022/07/03 11:15:41;;;;;;;;;1.00;1.00;;;;;50.73;13.45;101486.16;5033281;28;45518;-76
2022/07/03 11:18:12;;;;;;;;;9.67;8.33;;;;;50.47;13.79;101488.31;5033941;28;45659;-77
2022/07/03 11:20:43;;;;;;;;;2.00;2.00;;;;;49.73;13.60;101481.59;5034512;28;45473;-77
2022/07/03 11:23:27;;;;;;;;;4.33;4.00;;;;;48.90;14.09;101481.97;5032472;28;45832;-77
2022/07/03 11:26:20;;;;;;;;;1.67;1.67;;;;;48.18;14.78;101486.75;5034258;28;45655;-79
2022/07/03 11:28:45;;;;;;;;;2.67;2.67;;;;;47.40;15.33;101493.09;5035330;28;45255;-77
2022/07/03 11:31:11;;;;;;;;;1.67;1.67;;;;;45.84;16.30;101490.47;5034615;28;46514;-77
2022/07/03 11:33:42;;;;;;;;;1.67;1.67;;;;;44.48;17.11;101490.72;5042453;28;45291;-78
2022/07/03 11:36:14;;;;;;;;;1.33;1.33;;;;;43.33;18.08;101484.38;5033667;28;47140;-78
2022/07/03 11:38:40;;;;;;;;;1.00;1.00;;;;;42.05;18.99;101484.06;5036426;28;46052;-77
2022/07/03 11:41:12;;;;;;;;;33.33;32.00;;;;;40.89;19.67;101479.88;5040188;28;45405;-76
2022/07/03 11:43:45;;;;;;;;;16.00;15.00;;;;;39.98;20.70;101477.41;5034718;28;45335;-76
2022/07/03 11:46:16;;;;;;;;;6.00;6.00;;;;;38.90;21.73;101478.88;5032754;28;45443;-77
2022/07/03 11:48:45;;;;;;;;;11.33;8.33;;;;;37.98;23.26;101482.56;5033541;28;46273;-77
2022/07/03 11:51:10;;;;;;;;;3.00;3.00;;;;;37.34;23.97;101476.34;5034504;28;45854;-77
2022/07/03 11:53:38;;;;;;;;;4.00;4.00;;;;;36.78;24.35;101480.38;5035717;28;45741;-77
2022/07/03 11:56:06;;;;;;;;;1.67;1.67;;;;;36.24;25.11;101474.09;5024719;28;45510;-75
2022/07/03 11:58:57;;;;;;;;;3.00;3.00;;;;;35.73;26.71;101474.72;5024091;28;47175;-76
2022/07/03 12:01:23;;;;;;;;;3.33;3.00;;;;;35.24;27.07;101467.19;5017315;28;45399;-76
2022/07/03 12:04:14;;;;;;;;;25.67;22.33;;;;;34.81;28.00;101474.38;5013185;28;45734;-75
2022/07/03 12:06:48;;;;;;;;;4.00;3.00;;;;;34.32;28.58;101469.47;5014792;28;45372;-79
2022/07/03 12:09:21;;;;;;;;;6.00;5.00;;;;;33.86;29.18;101466.59;5023927;28;45716;-75
2022/07/03 12:12:03;;;;;;;;;1.33;1.33;;;;;33.51;30.38;101471.81;5014323;28;45761;-76
2022/07/03 12:14:45;;;;;;;;;1.00;1.00;;;;;33.06;31.57;101478.97;5014729;28;45692;-77
2022/07/03 12:17:20;;;;;;;;;2.00;1.00;;;;;32.71;31.51;101462.16;5006614;28;46590;-75
2022/07/03 12:19:48;;;;;;;;;1.00;1.00;;;;;32.38;31.86;101457.09;5011623;28;46725;-77
2022/07/03 12:22:34;;;;;;;;;0.25;0.25;;;;;32.06;34.47;101455.72;5011907;28;45775;-78
2022/07/03 12:25:14;;;;;;;;;0.25;0.25;;;;;31.85;36.22;101453.59;5002823;28;46415;-77
2022/07/03 12:27:41;;;;;;;;;0.75;0.00;;;;;31.65;35.80;101455.16;5010557;28;45536;-74
2022/07/03 12:30:09;;;;;;;;;1.33;1.33;;;;;31.65;37.26;101460.81;5007849;28;46736;-76
2022/07/03 12:32:36;;;;;;;;;2.00;2.00;;;;;31.55;36.62;101458.28;5025761;28;45693;-76
2022/07/03 12:35:03;;;;;;;;;2.33;2.33;;;;;31.35;37.34;101463.47;5029103;28;45805;-76
2022/07/03 12:37:37;;;;;;;;;1.00;1.00;;;;;31.16;38.12;101456.09;5031333;28;45761;-78
2022/07/03 12:40:05;;;;;;;;;5.00;4.33;;;;;31.00;38.13;101449.25;5026852;28;45319;-78
2022/07/03 12:42:31;;;;;;;;;0.33;0.33;;;;;30.73;39.98;101454.00;5009201;28;45723;-74
2022/07/03 12:45:01;;;;;;;;;1.00;1.00;;;;;30.63;40.93;101448.69;5012438;28;45343;-75
2022/07/03 12:47:29;;;;;;;;;1.00;1.00;;;;;30.60;42.07;101443.63;5026503;28;45826;-78
2022/07/03 12:49:57;;;;;;;;;18.00;16.67;;;;;30.63;42.38;101452.31;5028738;28;47190;-78
2022/07/03 12:52:22;;;;;;;;;2.67;2.00;;;;;30.73;41.14;101441.84;5031998;28;45822;-78
2022/07/03 12:54:47;;;;;;;;;20.67;16.33;;;;;30.71;38.96;101453.50;5040286;28;45516;-76
2022/07/03 13:00:17;;;;;;;;;6.00;4.00;;;;;30.66;38.58;101450.00;5030533;28;45469;-78
2022/07/03 13:02:48;;;;;;;;;19.00;19.00;;;;;30.74;39.60;101447.19;5029923;28;45397;-78
2022/07/03 13:05:16;;;;;;;;;2.00;2.00;;;;;30.79;38.80;101455.53;5029943;28;45452;-78
2022/07/03 13:07:42;;;;;;;;;11.33;10.67;;;;;30.87;39.35;101458.69;5032782;28;45562;-76
2022/07/03 13:10:09;;;;;;;;;3.00;3.00;;;;;30.85;38.97;101439.22;5033647;28;45871;-76
2022/07/03 13:12:34;;;;;;;;;8.00;5.67;;;;;30.91;38.20;101457.72;5012449;28;45559;-76
2022/07/03 13:15:01;;;;;;;;;56.00;46.25;;;;;30.80;39.16;101453.53;5034853;28;45559;-76
2022/07/03 13:17:55;;;;;;;;;35.33;32.67;;;;;30.66;39.89;101448.00;5033400;28;45483;-76
2022/07/03 13:20:25;;;;;;;;;16.00;12.67;;;;;30.49;39.37;101445.13;5036025;28;45499;-76
2022/07/03 13:22:52;;;;;;;;;7.67;6.00;;;;;30.38;40.16;101453.88;5028988;28;45624;-76
2022/07/03 13:25:18;;;;;;;;;8.00;8.00;;;;;30.20;38.85;101446.47;5032701;28;45820;-78
2022/07/03 13:27:45;;;;;;;;;3.67;3.67;;;;;30.15;39.98;101447.47;5031145;28;45622;-75
2022/07/03 13:30:17;;;;;;;;;5.00;4.00;;;;;30.02;40.17;101437.06;5031771;28;46623;-76
2022/07/03 13:32:44;;;;;;;;;5.00;5.00;;;;;30.04;40.90;101444.06;5032613;28;45773;-76
2022/07/03 13:35:10;;;;;;;;;1.67;1.67;;;;;29.83;39.57;101432.47;5033917;28;45453;-74
2022/07/03 13:37:36;;;;;;;;;0.67;0.67;;;;;29.64;40.15;101446.78;5031782;28;45445;-75
2022/07/03 13:40:03;;;;;;;;;1.67;1.00;;;;;29.55;40.93;101445.88;5029554;28;46080;-72
2022/07/03 13:42:29;;;;;;;;;4.00;4.00;;;;;29.35;41.83;101442.41;5014626;28;45415;-77
2022/07/03 13:44:54;;;;;;;;;3.00;3.00;;;;;29.27;42.35;101436.69;5029740;28;45855;-76
2022/07/03 13:47:20;;;;;;;;;6.67;4.67;;;;;29.23;42.71;101436.50;5032308;28;45409;-75
2022/07/03 13:49:45;;;;;;;;;0.67;0.67;;;;;29.12;40.54;101430.22;5031929;28;46480;-75
2022/07/03 13:52:10;;;;;;;;;4.00;4.00;;;;;29.01;41.13;101432.47;5032071;28;45509;-73
2022/07/03 13:54:36;;;;;;;;;1.00;1.00;;;;;28.86;42.93;101432.78;5029141;28;45670;-75
2022/07/03 13:57:05;;;;;;;;;1.67;1.67;;;;;28.74;42.88;101429.69;5012569;28;46089;-75
2022/07/03 13:59:30;;;;;;;;;0.50;0.00;;;;;28.70;43.10;101433.13;5032346;28;45496;-76
2022/07/03 14:01:57;;;;;;;;;3.00;2.00;;;;;28.71;42.57;101436.78;5022909;28;45644;-75
2022/07/03 14:04:22;;;;;;;;;1.33;1.33;;;;;28.70;43.48;101423.84;5029750;28;45757;-75
2022/07/03 14:06:50;;;;;;;;;2.00;2.00;;;;;28.70;43.37;101423.84;5033232;28;45833;-75
2022/07/03 14:09:16;;;;;;;;;5.00;5.00;;;;;28.68;44.18;101426.13;5029381;28;46043;-75
2022/07/03 14:11:42;;;;;;;;;1.00;1.00;;;;;28.60;43.92;101430.53;5017431;28;45701;-73
2022/07/03 14:14:07;;;;;;;;;2.00;2.00;;;;;28.52;45.00;101422.78;5023783;28;45896;-75
2022/07/03 14:16:37;;;;;;;;;2.00;1.00;;;;;28.47;44.37;101432.16;5028217;28;46942;-74
2022/07/03 14:19:03;;;;;;;;;2.00;2.00;;;;;28.43;45.04;101435.94;5022349;28;45811;-73
2022/07/03 14:21:29;;;;;;;;;1.33;1.33;;;;;28.42;47.42;101439.91;5026218;28;45748;-78
2022/07/03 14:23:55;;;;;;;;;1.00;1.00;;;;;28.39;46.19;101438.56;5013265;28;45429;-75
2022/07/03 14:34:43;;;;;;;;;1.00;1.00;;;;;28.16;44.78;101429.16;5037467;28;45693;-76
2022/07/03 14:37:08;;;;;;;;;0.00;0.00;;;;;28.07;44.96;101420.56;5029013;28;45536;-76
2022/07/03 14:39:34;;;;;;;;;0.00;0.00;;;;;28.00;46.21;101428.59;5027648;28;46279;-75
2022/07/03 14:42:02;;;;;;;;;7.33;5.33;;;;;27.98;46.34;101428.91;5029134;28;45499;-77
2022/07/03 14:44:28;;;;;;;;;1.00;1.00;;;;;27.98;44.54;101431.72;5026965;28;45768;-73
2022/07/03 14:46:53;;;;;;;;;0.00;0.00;;;;;27.98;44.95;101431.72;5028821;28;45540;-76
2022/07/03 14:49:19;;;;;;;;;0.67;0.67;;;;;27.96;44.65;101421.88;5027143;28;45717;-75
2022/07/03 14:51:45;;;;;;;;;0.00;0.00;;;;;27.95;44.31;101429.50;5026901;28;45655;-75
2022/07/03 14:54:13;;;;;;;;;1.00;1.00;;;;;27.89;46.09;101427.06;5029878;28;45791;-75
2022/07/03 14:56:43;;;;;;;;;0.00;0.00;;;;;27.87;44.65;101432.19;5027064;28;45748;-75
2022/07/03 14:59:09;;;;;;;;;3.33;2.67;;;;;27.83;43.88;101437.63;5024317;28;45853;-74
2022/07/03 15:01:36;;;;;;;;;3.00;3.00;;;;;27.79;44.99;101425.28;5032906;28;46038;-77
2022/07/03 15:04:03;;;;;;;;;0.67;0.67;;;;;27.74;44.79;101420.59;5031223;28;46045;-75
2022/07/03 15:06:29;;;;;;;;;0.00;0.00;;;;;27.68;46.35;101423.78;5029383;28;45863;-74
2022/07/03 15:09:00;;;;;;;;;0.67;0.00;;;;;27.69;45.88;101434.75;5010767;28;47197;-74
2022/07/03 15:14:41;;;;;;;;;1.67;1.67;;;;;27.67;45.75;101427.78;5025357;28;45725;-75
2022/07/03 15:17:07;;;;;;;;;2.67;1.00;;;;;27.71;47.74;101429.66;5026138;28;45768;-77
2022/07/03 15:19:37;;;;;;;;;6.67;5.33;;;;;27.74;46.38;101433.81;5032662;28;46743;-77
2022/07/03 15:22:04;;;;;;;;;0.67;0.67;;;;;27.77;47.43;101434.06;5032314;28;45661;-74
2022/07/03 15:24:30;;;;;;;;;7.33;5.67;;;;;27.82;47.26;101435.94;5032765;28;45994;-77
2022/07/03 15:26:56;;;;;;;;;1.67;1.67;;;;;27.83;44.82;101434.81;5034523;28;45508;-76